createdAt,value
2022-10-17T00:02:05.598Z,56.55
2022-10-17T00:07:09.023Z,59.30
2022-10-17T00:12:16.904Z,56.75
2022-10-17T00:17:18.983Z,58.33
2022-10-17T00:22:22.429Z,58.03
2022-10-17T00:27:24.767Z,56.65
2022-10-17T00:32:29.089Z,57.90
2022-10-17T00:37:33.686Z,58.95
2022-10-17T00:42:36.082Z,61.72
2022-10-17T00:47:41.974Z,60.22
2022-10-17T00:52:46.831Z,61.13
2022-10-17T00:57:49.472Z,64.57
2022-10-17T01:02:51.636Z,60.08
2022-10-17T01:07:55.874Z,57.47
2022-10-17T01:13:05.524Z,64.18
2022-10-17T01:18:16.105Z,63.65
2022-10-17T01:23:31.555Z,67.85
2022-10-17T01:29:07.374Z,67.93
2022-10-17T01:34:17.176Z,65.03
2022-10-17T01:39:38.516Z,60.42
2022-10-17T01:44:47.696Z,60.72
2022-10-17T01:49:53.771Z,69.75
2022-10-17T01:55:07.316Z,73.03
2022-10-17T02:00:13.622Z,65.05
2022-10-17T02:05:18.588Z,71.55
2022-10-17T02:10:26.437Z,64.95
2022-10-17T02:16:00.490Z,67.32
2022-10-17T02:21:09.453Z,65.80
2022-10-17T02:26:15.367Z,73.90
2022-10-17T02:31:21.683Z,67.45
2022-10-17T02:36:30.436Z,67.30
2022-10-17T02:41:34.264Z,67.95
2022-10-17T02:46:38.544Z,70.50
2022-10-17T02:51:46.737Z,72.45
2022-10-17T02:56:57.593Z,69.05
2022-10-17T03:02:03.564Z,68.03
2022-10-17T03:07:07.963Z,72.88
2022-10-17T03:12:11.083Z,68.85
2022-10-17T03:17:14.093Z,72.88
2022-10-17T03:22:18.603Z,72.53
2022-10-17T03:27:21.929Z,69.53
2022-10-17T03:32:24.263Z,73.97
2022-10-17T03:37:28.800Z,69.97
2022-10-17T03:42:34.866Z,68.32
2022-10-17T03:47:38.074Z,73.18
2022-10-17T03:52:45.059Z,69.97
2022-10-17T03:57:48.697Z,71.43
2022-10-17T04:02:54.019Z,75.82
2022-10-17T04:08:00.968Z,78.13
2022-10-17T04:13:09.747Z,77.88
2022-10-17T04:18:12.157Z,78.68
2022-10-17T04:23:16.340Z,75.22
2022-10-17T04:28:22.099Z,77.80
2022-10-17T04:33:25.019Z,76.03
2022-10-17T04:38:34.313Z,75.68
2022-10-17T04:43:43.552Z,71.63
2022-10-17T04:48:50.331Z,74.93
2022-10-17T04:53:56.468Z,69.57
2022-10-17T04:59:00.665Z,71.32
2022-10-17T05:04:04.207Z,69.07
2022-10-17T05:09:08.221Z,70.63
2022-10-17T05:14:11.072Z,68.25
2022-10-17T05:19:13.708Z,65.05
2022-10-17T05:24:19.359Z,65.15
2022-10-17T05:29:22.042Z,67.53
2022-10-17T05:34:25.269Z,61.50
2022-10-17T05:39:31.003Z,60.58
2022-10-17T05:44:33.520Z,59.50
2022-10-17T05:49:46.287Z,58.97
2022-10-17T05:54:55.452Z,55.70
2022-10-17T05:59:57.818Z,52.45
2022-10-17T06:05:03.058Z,54.42
2022-10-17T06:10:07.465Z,54.42
2022-10-17T06:15:10.544Z,49.08
2022-10-17T06:20:12.687Z,48.15
2022-10-17T06:25:16.274Z,46.63
2022-10-17T06:30:18.491Z,45.25
2022-10-17T06:35:20.719Z,45.22
2022-10-17T06:40:22.288Z,39.17
2022-10-17T06:45:25.975Z,37.33
2022-10-17T06:50:28.086Z,36.73
2022-10-17T06:55:30.153Z,35.35
2022-10-17T07:00:36.651Z,32.42
2022-10-17T07:10:55.114Z,31.38
2022-10-17T07:16:01.817Z,30.90
2022-10-17T07:21:09.657Z,29.30
2022-10-17T07:26:14.863Z,30.08
2022-10-17T07:31:20.062Z,30.35
2022-10-17T07:47:31.418Z,29.08
2022-10-17T07:52:38.694Z,30.15
2022-10-17T07:57:41.305Z,30.13
2022-10-17T08:02:44.715Z,32.85
2022-10-17T08:07:49.552Z,32.13
2022-10-17T08:12:51.635Z,36.40
2022-10-17T08:17:55.759Z,32.85
2022-10-17T08:28:23.393Z,29.45
2022-10-17T08:33:27.312Z,40.00
2022-10-17T08:38:35.153Z,29.98
2022-10-17T08:49:24.790Z,29.88
2022-10-17T08:54:42.954Z,29.95
2022-10-17T08:59:46.134Z,30.33
2022-10-17T09:05:01.826Z,30.55
2022-10-17T09:10:17.378Z,28.35
2022-10-17T09:15:50.193Z,29.88
2022-10-17T09:20:55.795Z,30.02
2022-10-17T09:26:01.627Z,29.63
2022-10-17T09:31:06.888Z,29.10
2022-10-17T09:36:14.464Z,29.75
2022-10-17T09:41:45.570Z,29.00
2022-10-17T09:47:01.134Z,29.08
2022-10-17T09:52:05.465Z,29.95
2022-10-17T09:57:11.430Z,29.45
2022-10-17T10:02:22.428Z,30.05
2022-10-17T10:07:29.103Z,30.00
2022-10-17T10:12:35.704Z,29.95
2022-10-17T10:17:41.679Z,26.65
2022-10-17T10:22:43.840Z,27.77
2022-10-17T10:27:48.472Z,27.17
2022-10-17T10:32:51.398Z,24.67
2022-10-17T10:37:55.140Z,25.55
2022-10-17T10:43:05.198Z,23.40
2022-10-17T10:48:19.818Z,22.92
2022-10-17T10:53:38.065Z,22.80
2022-10-17T10:58:50.748Z,22.58
2022-10-17T11:04:09.068Z,21.23
2022-10-17T11:09:24.621Z,21.52
2022-10-17T11:14:38.241Z,20.08
2022-10-17T11:19:45.755Z,20.67
2022-10-17T11:24:57.094Z,21.13
2022-10-17T11:30:00.886Z,21.08
2022-10-17T11:35:08.158Z,20.00
2022-10-17T11:40:21.928Z,19.60
2022-10-17T11:45:30.570Z,19.52
2022-10-17T11:56:00.291Z,19.02
2022-10-17T12:01:11.002Z,17.60
2022-10-17T12:06:25.825Z,16.45
2022-10-17T12:11:39.825Z,16.90
2022-10-17T12:16:51.014Z,17.52
2022-10-17T12:22:01.541Z,16.30
2022-10-17T12:27:42.485Z,16.10
2022-10-17T12:33:07.491Z,15.65
2022-10-17T12:38:26.882Z,14.82
2022-10-17T12:43:59.287Z,15.45
2022-10-17T12:49:22.454Z,15.10
2022-10-17T12:54:31.432Z,13.55
2022-10-17T12:59:45.165Z,12.82
2022-10-17T13:04:50.105Z,13.73
2022-10-17T13:09:53.339Z,13.68
2022-10-17T13:15:02.136Z,13.10
2022-10-17T13:20:27.554Z,13.07
2022-10-17T13:25:37.607Z,13.48
2022-10-17T13:30:50.090Z,13.10
2022-10-17T13:36:04.124Z,12.77
2022-10-17T13:41:35.779Z,13.00
2022-10-17T13:47:00.294Z,12.73
2022-10-17T13:52:30.053Z,12.85
2022-10-17T13:57:43.452Z,11.05
2022-10-17T14:02:47.535Z,11.77
2022-10-17T14:08:15.883Z,11.13
2022-10-17T14:13:24.650Z,11.70
2022-10-17T14:18:35.746Z,11.38
2022-10-17T14:23:44.457Z,11.57
2022-10-17T14:28:49.951Z,11.88
2022-10-17T14:33:56.494Z,11.35
2022-10-17T14:39:01.988Z,11.73
2022-10-17T14:44:09.589Z,12.20
2022-10-17T14:49:24.316Z,12.50
2022-10-17T14:54:30.733Z,12.98
2022-10-17T14:59:53.374Z,12.90
2022-10-17T15:04:56.900Z,12.05
2022-10-17T15:10:04.483Z,12.55
2022-10-17T15:15:11.545Z,12.23
2022-10-17T15:20:16.707Z,12.27
2022-10-17T15:25:24.090Z,11.70
2022-10-17T15:30:32.573Z,11.25
2022-10-17T15:35:39.074Z,11.02
2022-10-17T15:40:43.749Z,10.90
2022-10-17T15:45:47.850Z,10.68
2022-10-17T15:50:53.829Z,10.57
2022-10-17T15:55:58.662Z,10.52
2022-10-17T16:01:04.046Z,9.38
2022-10-17T16:06:10.740Z,8.75
2022-10-17T16:11:23.907Z,8.43
2022-10-17T16:16:27.548Z,8.85
2022-10-17T16:21:34.972Z,8.65
2022-10-17T16:26:38.809Z,8.60
2022-10-17T16:31:43.511Z,8.00
2022-10-17T16:36:45.614Z,8.38
2022-10-17T16:41:52.534Z,7.53
2022-10-17T16:46:56.973Z,7.72
2022-10-17T16:52:00.421Z,7.35
2022-10-17T16:57:05.710Z,7.85
2022-10-17T17:02:11.663Z,7.68
2022-10-17T17:07:14.875Z,6.90
2022-10-17T17:12:24.137Z,7.30
2022-10-17T17:17:44.276Z,7.93
2022-10-17T17:22:52.522Z,8.15
2022-10-17T17:27:56.854Z,7.43
2022-10-17T17:33:00.289Z,7.57
2022-10-17T17:38:05.133Z,7.43
2022-10-17T17:43:09.692Z,7.28
2022-10-17T17:48:12.904Z,7.60
2022-10-17T17:53:18.109Z,7.18
2022-10-17T17:58:27.354Z,7.88
2022-10-17T18:03:29.885Z,7.72
2022-10-17T18:08:32.642Z,7.90
2022-10-17T18:13:37.970Z,7.40
2022-10-17T18:18:43.439Z,7.80
2022-10-17T18:23:50.016Z,7.97
2022-10-17T18:28:55.657Z,8.27
2022-10-17T18:34:01.680Z,8.55
2022-10-17T18:39:05.102Z,8.65
2022-10-17T18:44:10.163Z,9.05
2022-10-17T18:49:15.529Z,9.43
2022-10-17T19:00:00.225Z,9.13
2022-10-17T19:05:03.497Z,9.40
2022-10-17T19:10:05.999Z,9.15
2022-10-17T19:15:10.486Z,9.68
2022-10-17T19:20:14.053Z,9.68
2022-10-17T19:25:16.621Z,9.65
2022-10-17T19:30:21.135Z,10.20
2022-10-17T19:35:24.805Z,9.82
2022-10-17T19:40:27.910Z,10.05
2022-10-17T19:45:31.964Z,10.23
2022-10-17T19:50:36.682Z,9.80
2022-10-17T19:55:42.690Z,10.65
2022-10-17T20:00:54.015Z,10.43
2022-10-17T20:05:57.991Z,10.85
2022-10-17T20:11:05.266Z,11.23
2022-10-17T20:16:12.607Z,11.32
2022-10-17T20:21:17.197Z,11.38
2022-10-17T20:26:33.626Z,11.07
2022-10-17T20:31:42.262Z,11.70
2022-10-17T20:36:44.558Z,11.18
2022-10-17T20:41:47.240Z,11.80
2022-10-17T20:47:01.731Z,11.13
2022-10-17T20:52:10.257Z,12.10
2022-10-17T20:57:12.488Z,10.95
2022-10-17T21:02:16.284Z,12.60
2022-10-17T21:07:19.600Z,11.75
2022-10-17T21:12:31.363Z,10.68
2022-10-17T21:17:40.357Z,10.88
2022-10-17T21:22:42.604Z,11.10
2022-10-17T21:27:44.918Z,10.60
2022-10-17T21:32:52.071Z,10.80
2022-10-17T21:37:59.202Z,10.88
2022-10-17T21:43:01.276Z,11.20
2022-10-17T21:48:13.321Z,11.63
2022-10-17T21:53:15.869Z,11.23
2022-10-17T21:58:17.970Z,10.40
2022-10-17T22:03:26.326Z,11.02
2022-10-17T22:08:29.138Z,10.57
2022-10-17T22:13:31.223Z,11.65
2022-10-17T22:18:35.230Z,11.40
2022-10-17T22:23:38.407Z,11.00
2022-10-17T22:28:41.928Z,10.30
2022-10-17T22:33:45.669Z,13.63
2022-10-17T22:38:47.799Z,13.73
2022-10-17T22:43:49.903Z,12.48
2022-10-17T22:48:58.841Z,12.43
2022-10-17T22:54:00.930Z,12.40
2022-10-17T22:59:03.008Z,12.75
2022-10-17T23:04:06.580Z,12.88
2022-10-17T23:09:09.129Z,12.82
2022-10-17T23:14:11.215Z,12.63
2022-10-17T23:19:15.110Z,13.52
2022-10-17T23:24:17.496Z,12.90
2022-10-17T23:29:19.873Z,12.88
2022-10-17T23:34:23.946Z,12.60
2022-10-17T23:39:26.053Z,12.85
2022-10-17T23:44:28.139Z,13.50
2022-10-17T23:49:32.406Z,13.20
2022-10-17T23:54:34.551Z,13.55
2022-10-17T23:59:36.715Z,13.32
